createdAt,value
2022-10-16T00:03:15.037Z,20.50
2022-10-16T00:07:16.763Z,20.30
2022-10-16T00:11:19.789Z,20.30
2022-10-16T00:15:21.547Z,20.10
2022-10-16T00:19:23.431Z,20.40
2022-10-16T00:23:26.446Z,20.50
2022-10-16T00:27:28.213Z,20.30
2022-10-16T00:31:30.710Z,20.50
2022-10-16T00:35:32.637Z,20.00
2022-10-16T00:39:34.411Z,20.30
2022-10-16T00:43:56.609Z,19.90
2022-10-16T00:47:58.497Z,20.20
2022-10-16T00:52:01.661Z,20.30
2022-10-16T00:56:04.418Z,20.00
2022-10-16T01:00:08.894Z,20.10
2022-10-16T01:04:10.639Z,19.90
2022-10-16T01:08:18.678Z,20.10
2022-10-16T01:12:45.420Z,19.90
2022-10-16T01:16:59.098Z,19.60
2022-10-16T01:21:14.920Z,19.80
2022-10-16T01:25:31.148Z,19.30
2022-10-16T01:29:57.365Z,19.30
2022-10-16T01:34:12.151Z,19.50
2022-10-16T01:38:43.102Z,19.30
2022-10-16T01:42:51.231Z,18.90
2022-10-16T01:46:55.784Z,18.80
2022-10-16T01:51:17.839Z,19.10
2022-10-16T01:55:28.516Z,19.10
2022-10-16T01:59:34.143Z,19.00
2022-10-16T02:03:37.870Z,18.80
2022-10-16T02:07:39.888Z,18.90
2022-10-16T02:11:41.695Z,18.90
2022-10-16T02:15:45.655Z,18.60
2022-10-16T02:19:49.993Z,18.20
2022-10-16T02:24:09.371Z,18.10
2022-10-16T02:28:20.436Z,18.40
2022-10-16T02:32:25.567Z,18.40
2022-10-16T02:36:28.658Z,18.60
2022-10-16T02:40:30.803Z,18.80
2022-10-16T02:44:32.763Z,19.00
2022-10-16T02:48:34.490Z,19.00
2022-10-16T02:52:36.404Z,18.80
2022-10-16T02:56:38.900Z,18.60
2022-10-16T03:00:40.813Z,18.80
2022-10-16T03:04:42.563Z,18.60
2022-10-16T03:08:44.712Z,18.50
2022-10-16T03:12:54.526Z,18.70
2022-10-16T03:16:56.307Z,18.90
2022-10-16T03:20:58.000Z,19.20
2022-10-16T03:24:59.748Z,19.10
2022-10-16T03:29:05.629Z,19.20
2022-10-16T03:33:08.853Z,18.60
2022-10-16T03:37:10.741Z,18.50
2022-10-16T03:41:12.686Z,18.60
2022-10-16T03:45:14.367Z,18.90
2022-10-16T03:49:16.378Z,19.10
2022-10-16T03:53:18.725Z,19.20
2022-10-16T03:57:21.622Z,19.30
2022-10-16T04:01:23.421Z,19.00
2022-10-16T04:05:25.241Z,18.90
2022-10-16T04:09:27.501Z,19.00
2022-10-16T04:13:29.316Z,19.10
2022-10-16T04:17:31.000Z,19.00
2022-10-16T04:21:32.872Z,18.90
2022-10-16T04:25:34.746Z,19.20
2022-10-16T04:29:36.419Z,19.10
2022-10-16T04:33:38.204Z,19.00
2022-10-16T04:37:40.037Z,18.90
2022-10-16T04:41:41.768Z,19.00
2022-10-16T04:45:43.469Z,18.90
2022-10-16T04:49:45.197Z,19.10
2022-10-16T04:53:46.878Z,18.90
2022-10-16T04:57:49.034Z,18.90
2022-10-16T05:01:51.284Z,19.00
2022-10-16T05:05:54.119Z,18.70
2022-10-16T05:09:55.867Z,18.70
2022-10-16T05:13:57.578Z,18.50
2022-10-16T05:17:59.375Z,18.80
2022-10-16T05:22:01.107Z,18.60
2022-10-16T05:26:02.859Z,18.90
2022-10-16T05:30:07.389Z,18.50
2022-10-16T05:34:10.434Z,18.50
2022-10-16T05:38:13.840Z,18.40
2022-10-16T05:42:15.887Z,18.70
2022-10-16T05:46:18.207Z,18.70
2022-10-16T05:50:19.917Z,18.60
2022-10-16T05:54:21.694Z,18.60
2022-10-16T05:58:25.558Z,18.80
2022-10-16T06:02:27.328Z,19.20
2022-10-16T06:06:30.674Z,18.90
2022-10-16T06:10:32.479Z,18.80
2022-10-16T06:14:34.290Z,18.90
2022-10-16T06:18:36.124Z,19.10
2022-10-16T06:22:37.837Z,19.00
2022-10-16T06:26:39.813Z,18.90
2022-10-16T06:34:57.590Z,18.90
2022-10-16T06:38:59.564Z,18.60
2022-10-16T06:43:01.251Z,18.90
2022-10-16T06:47:02.986Z,19.30
2022-10-16T06:51:11.332Z,19.40
2022-10-16T06:55:12.997Z,19.40
2022-10-16T06:59:14.698Z,19.30
2022-10-16T07:03:16.590Z,19.10
2022-10-16T07:07:18.331Z,19.60
2022-10-16T07:11:22.666Z,19.50
2022-10-16T07:15:25.714Z,19.60
2022-10-16T07:19:30.616Z,19.60
2022-10-16T07:23:34.083Z,19.20
2022-10-16T07:31:43.246Z,19.10
2022-10-16T07:35:55.229Z,19.60
2022-10-16T07:39:57.079Z,20.00
2022-10-16T07:44:01.180Z,20.20
2022-10-16T07:48:03.290Z,20.60
2022-10-16T07:52:05.030Z,20.40
2022-10-16T07:56:08.068Z,20.80
2022-10-16T08:00:14.547Z,20.50
2022-10-16T08:04:16.715Z,20.50
2022-10-16T08:08:19.563Z,20.60
2022-10-16T08:12:21.385Z,20.70
2022-10-16T08:16:23.366Z,20.30
2022-10-16T08:20:25.728Z,20.50
2022-10-16T08:24:27.762Z,20.60
2022-10-16T08:28:29.818Z,20.80
2022-10-16T08:32:34.148Z,20.80
2022-10-16T08:36:35.972Z,20.90
2022-10-16T08:40:41.368Z,21.00
2022-10-16T08:44:43.067Z,20.60
2022-10-16T08:48:52.379Z,20.00
2022-10-16T08:52:58.458Z,20.60
2022-10-16T08:57:10.606Z,20.60
2022-10-16T09:01:15.947Z,20.80
2022-10-16T09:05:41.222Z,21.10
2022-10-16T09:10:27.267Z,21.00
2022-10-16T09:14:49.986Z,20.30
2022-10-16T09:19:04.475Z,21.00
2022-10-16T09:23:06.234Z,21.20
2022-10-16T09:27:16.073Z,21.50
2022-10-16T09:31:20.842Z,21.30
2022-10-16T09:35:28.249Z,21.10
2022-10-16T09:39:42.161Z,21.30
2022-10-16T09:43:59.201Z,21.60
2022-10-16T09:48:11.201Z,21.80
2022-10-16T09:52:16.910Z,21.90
2022-10-16T09:56:28.471Z,21.70
2022-10-16T10:00:31.085Z,21.90
2022-10-16T10:04:59.047Z,22.10
2022-10-16T10:09:02.691Z,21.50
2022-10-16T10:13:04.415Z,21.60
2022-10-16T10:17:06.057Z,21.80
2022-10-16T10:21:16.303Z,22.00
2022-10-16T10:25:31.814Z,22.30
2022-10-16T10:30:03.300Z,22.40
2022-10-16T10:34:35.961Z,22.30
2022-10-16T10:39:09.076Z,22.50
2022-10-16T10:48:46.844Z,22.70
2022-10-16T10:52:48.716Z,22.90
2022-10-16T11:02:33.311Z,22.80
2022-10-16T11:11:14.984Z,22.50
2022-10-16T11:15:32.022Z,22.70
2022-10-16T11:19:53.391Z,22.60
2022-10-16T11:28:33.510Z,22.50
2022-10-16T11:33:05.068Z,22.50
2022-10-16T11:37:17.263Z,22.50
2022-10-16T11:41:21.946Z,22.60
2022-10-16T11:45:26.435Z,22.30
2022-10-16T11:49:31.786Z,22.20
2022-10-16T11:54:00.841Z,22.20
2022-10-16T11:58:15.158Z,22.30
2022-10-16T12:02:41.676Z,22.70
2022-10-16T12:07:00.775Z,22.70
2022-10-16T12:11:31.429Z,22.80
2022-10-16T12:15:57.678Z,22.40
2022-10-16T12:20:18.549Z,22.70
2022-10-16T12:24:29.136Z,22.80
2022-10-16T12:28:37.884Z,23.00
2022-10-16T12:32:46.824Z,22.80
2022-10-16T12:36:49.730Z,22.80
2022-10-16T12:41:02.038Z,22.50
2022-10-16T12:45:23.887Z,22.70
2022-10-16T12:49:40.081Z,23.10
2022-10-16T12:53:46.375Z,23.10
2022-10-16T12:58:07.327Z,23.00
2022-10-16T13:02:46.939Z,22.90
2022-10-16T13:07:37.493Z,23.20
2022-10-16T13:12:03.107Z,23.10
2022-10-16T13:16:35.435Z,23.20
2022-10-16T13:21:11.571Z,23.40
2022-10-16T13:25:16.370Z,23.50
2022-10-16T13:29:19.896Z,23.60
2022-10-16T13:33:43.286Z,23.60
2022-10-16T13:37:44.989Z,23.70
2022-10-16T13:41:47.044Z,23.60
2022-10-16T13:46:19.052Z,23.60
2022-10-16T13:50:20.883Z,23.70
2022-10-16T13:54:23.353Z,23.80
2022-10-16T13:58:25.168Z,23.90
2022-10-16T14:02:45.989Z,24.00
2022-10-16T14:06:51.572Z,23.90
2022-10-16T14:10:57.472Z,24.10
2022-10-16T14:15:00.991Z,24.10
2022-10-16T14:19:11.230Z,24.00
2022-10-16T14:23:32.209Z,24.10
2022-10-16T14:27:36.472Z,24.10
2022-10-16T14:31:40.809Z,24.00
2022-10-16T14:35:42.570Z,24.00
2022-10-16T14:39:51.040Z,24.10
2022-10-16T14:43:56.245Z,24.20
2022-10-16T14:48:18.781Z,24.10
2022-10-16T14:52:23.003Z,24.10
2022-10-16T14:56:27.547Z,24.20
2022-10-16T15:00:29.347Z,24.30
2022-10-16T15:04:31.132Z,24.30
2022-10-16T15:08:32.805Z,24.20
2022-10-16T15:12:36.736Z,24.20
2022-10-16T15:16:38.704Z,24.20
2022-10-16T15:20:40.578Z,24.20
2022-10-16T15:24:42.322Z,24.30
2022-10-16T15:28:44.049Z,24.30
2022-10-16T15:32:45.899Z,24.30
2022-10-16T15:36:48.088Z,24.20
2022-10-16T15:40:50.558Z,24.20
2022-10-16T15:44:52.267Z,24.20
2022-10-16T15:48:58.812Z,24.10
2022-10-16T15:53:06.234Z,24.10
2022-10-16T15:57:08.027Z,23.90
2022-10-16T16:01:11.261Z,23.90
2022-10-16T16:05:15.011Z,23.90
2022-10-16T16:09:16.787Z,23.80
2022-10-16T16:13:18.483Z,23.80
2022-10-16T16:17:20.440Z,23.80
2022-10-16T16:21:22.225Z,23.70
2022-10-16T16:25:24.337Z,23.60
2022-10-16T16:29:29.339Z,23.60
2022-10-16T16:33:32.446Z,23.60
2022-10-16T16:37:34.552Z,23.40
2022-10-16T16:41:36.372Z,23.40
2022-10-16T16:45:38.205Z,23.30
2022-10-16T16:49:41.496Z,23.40
2022-10-16T16:53:44.382Z,23.30
2022-10-16T16:57:53.763Z,23.30
2022-10-16T17:01:57.103Z,23.30
2022-10-16T17:05:59.928Z,23.20
2022-10-16T17:10:02.337Z,23.40
2022-10-16T17:14:04.323Z,23.10
2022-10-16T17:18:06.178Z,23.00
2022-10-16T17:22:07.905Z,23.00
2022-10-16T17:26:13.762Z,22.90
2022-10-16T17:30:15.489Z,22.80
2022-10-16T17:34:17.953Z,22.80
2022-10-16T17:38:21.614Z,22.80
2022-10-16T17:42:23.555Z,22.70
2022-10-16T17:46:26.048Z,22.40
2022-10-16T17:50:27.858Z,22.50
2022-10-16T17:54:29.527Z,22.50
2022-10-16T17:58:31.603Z,22.40
2022-10-16T18:02:33.548Z,22.30
2022-10-16T18:06:36.897Z,22.40
2022-10-16T18:10:47.355Z,22.00
2022-10-16T18:14:49.983Z,21.80
2022-10-16T18:18:52.368Z,21.80
2022-10-16T18:22:54.442Z,21.80
2022-10-16T18:26:56.826Z,21.80
2022-10-16T18:31:00.844Z,21.60
2022-10-16T18:35:02.619Z,21.50
2022-10-16T18:39:09.680Z,21.40
2022-10-16T18:43:11.984Z,21.00
2022-10-16T18:47:13.763Z,21.00
2022-10-16T18:51:20.473Z,20.90
2022-10-16T18:59:39.980Z,21.10
2022-10-16T19:03:42.961Z,20.90
2022-10-16T19:07:48.534Z,20.90
2022-10-16T19:15:58.296Z,20.30
2022-10-16T19:20:05.124Z,20.40
2022-10-16T19:24:10.926Z,20.60
2022-10-16T19:28:12.707Z,20.40
2022-10-16T19:32:14.526Z,20.20
2022-10-16T19:36:24.534Z,20.10
2022-10-16T19:40:26.653Z,20.30
2022-10-16T19:44:28.600Z,20.20
2022-10-16T19:48:42.420Z,20.10
2022-10-16T19:52:46.954Z,20.10
2022-10-16T19:56:49.028Z,20.00
2022-10-16T20:00:53.530Z,20.00
2022-10-16T20:04:55.485Z,19.70
2022-10-16T20:09:04.966Z,19.60
2022-10-16T20:13:08.394Z,19.60
2022-10-16T20:17:10.727Z,19.80
2022-10-16T20:21:22.053Z,19.80
2022-10-16T20:25:24.087Z,19.60
2022-10-16T20:29:26.217Z,19.70
2022-10-16T20:33:29.550Z,19.20
2022-10-16T20:37:32.810Z,19.40
2022-10-16T20:41:44.866Z,19.50
2022-10-16T20:45:46.897Z,19.10
2022-10-16T20:49:57.806Z,19.80
2022-10-16T20:54:05.368Z,19.90
2022-10-16T20:58:07.241Z,19.50
2022-10-16T21:02:14.285Z,19.40
2022-10-16T21:06:17.360Z,19.50
2022-10-16T21:10:20.023Z,19.60
2022-10-16T21:14:22.389Z,19.40
2022-10-16T21:18:24.312Z,19.40
2022-10-16T21:22:38.559Z,19.40
2022-10-16T21:26:44.731Z,19.50
2022-10-16T21:30:46.655Z,19.30
2022-10-16T21:34:48.653Z,19.20
2022-10-16T21:38:55.300Z,19.10
2022-10-16T21:43:01.074Z,19.20
2022-10-16T21:47:04.647Z,19.10
2022-10-16T21:51:09.620Z,19.00
2022-10-16T21:55:40.759Z,18.60
2022-10-16T21:59:42.933Z,18.60
2022-10-16T22:03:47.876Z,19.00
2022-10-16T22:07:49.785Z,18.90
2022-10-16T22:11:52.158Z,18.80
2022-10-16T22:15:56.732Z,18.70
2022-10-16T22:19:58.796Z,18.70
2022-10-16T22:24:02.959Z,18.60
2022-10-16T22:28:05.790Z,18.60
2022-10-16T22:32:15.130Z,18.30
2022-10-16T22:36:17.179Z,18.30
2022-10-16T22:40:18.967Z,18.30
2022-10-16T22:44:35.074Z,18.40
2022-10-16T22:48:37.420Z,18.30
2022-10-16T22:56:58.910Z,18.20
2022-10-16T23:01:14.470Z,18.20
2022-10-16T23:05:16.710Z,18.10
2022-10-16T23:09:19.545Z,18.20
2022-10-16T23:13:21.343Z,18.00
2022-10-16T23:17:23.077Z,18.00
2022-10-16T23:21:28.477Z,18.10
2022-10-16T23:25:30.544Z,18.00
2022-10-16T23:29:32.844Z,18.00
2022-10-16T23:33:36.228Z,18.10
2022-10-16T23:37:38.112Z,17.70
2022-10-16T23:41:44.266Z,17.90
2022-10-16T23:45:47.508Z,17.90
2022-10-16T23:49:49.372Z,17.80
2022-10-16T23:53:52.702Z,17.70
2022-10-16T23:57:54.703Z,18.10
